Time;durP1;ratioP1;P1;durP2;ratioP2;P2;SDS_P1;SDS_P2;PMS_P1;PMS_P2;Temp;Humidity;BMP_temperature;BMP_pressure;BME280_temperature;BME280_humidity;BME280_pressure;Samples;Min_cycle;Max_cycle;Signal;HPM_P1;HPM_P2
2023/03/11 00:01:39;;;;;;;73.00;8.98;;;2.80;99.90;;;;;;5035363;28;20161;-85
2023/03/11 00:04:08;;;;;;;69.22;10.25;;;2.80;99.90;;;;;;5053115;28;20142;-85
2023/03/11 00:06:39;;;;;;;69.63;10.38;;;2.80;99.90;;;;;;5033190;28;20170;-85
2023/03/11 00:09:08;;;;;;;69.03;9.80;;;2.80;99.90;;;;;;5029849;28;20186;-86
2023/03/11 00:11:34;;;;;;;72.22;11.90;;;2.80;99.90;;;;;;5033091;28;20533;-86
2023/03/11 00:14:02;;;;;;;83.17;14.70;;;2.80;99.90;;;;;;5051032;28;20228;-87
2023/03/11 00:16:29;;;;;;;75.45;10.95;;;2.80;99.90;;;;;;5050808;28;20420;-86
2023/03/11 00:19:01;;;;;;;70.72;12.55;;;2.80;99.90;;;;;;5033573;28;20177;-86
2023/03/11 00:21:32;;;;;;;67.35;9.90;;;2.80;99.90;;;;;;5033224;28;20181;-85
2023/03/11 00:24:00;;;;;;;71.20;11.25;;;2.80;99.90;;;;;;5051053;28;20205;-86
2023/03/11 00:26:26;;;;;;;77.15;12.43;;;2.80;99.90;;;;;;5033652;28;20228;-86
2023/03/11 00:29:13;;;;;;;68.78;16.80;;;2.70;99.90;;;;;;5050405;28;20157;-87
2023/03/11 00:31:38;;;;;;;74.43;13.45;;;2.80;99.90;;;;;;5049967;28;20215;-85
2023/03/11 00:34:03;;;;;;;70.77;12.20;;;2.80;99.90;;;;;;5050530;28;20157;-86
2023/03/11 00:36:32;;;;;;;74.97;13.97;;;2.80;99.90;;;;;;5050610;28;20396;-86
2023/03/11 00:39:06;;;;;;;72.63;12.38;;;2.80;99.90;;;;;;5050535;28;20193;-87
2023/03/11 00:41:37;;;;;;;70.70;11.50;;;2.80;99.90;;;;;;5050850;28;20154;-85
2023/03/11 00:44:03;;;;;;;74.75;11.50;;;2.70;99.90;;;;;;5050775;28;20157;-86
2023/03/11 00:46:30;;;;;;;72.27;11.30;;;2.70;99.90;;;;;;5033685;28;20212;-86
2023/03/11 00:49:10;;;;;;;69.70;12.43;;;2.70;99.90;;;;;;5050783;28;20468;-85
2023/03/11 00:51:35;;;;;;;69.75;8.93;;;2.70;99.90;;;;;;5050268;28;20564;-85
2023/03/11 00:54:01;;;;;;;68.77;8.30;;;2.60;99.90;;;;;;5050318;28;20169;-85
2023/03/11 00:56:30;;;;;;;69.90;8.27;;;2.60;99.90;;;;;;5032954;28;20193;-85
2023/03/11 00:58:56;;;;;;;71.82;7.13;;;2.60;99.90;;;;;;5032798;28;20408;-86
2023/03/11 01:01:22;;;;;;;66.20;7.27;;;2.60;99.90;;;;;;5051706;28;20157;-85
2023/03/11 01:03:48;;;;;;;75.15;10.25;;;2.60;99.90;;;;;;5032959;28;20196;-86
2023/03/11 01:06:14;;;;;;;69.00;7.63;;;2.60;99.90;;;;;;5032709;28;20192;-86
2023/03/11 01:08:40;;;;;;;77.88;10.23;;;2.60;99.90;;;;;;5032395;28;20507;-85
2023/03/11 01:11:07;;;;;;;72.85;7.80;;;2.60;99.90;;;;;;5049734;28;20215;-86
2023/03/11 01:13:34;;;;;;;67.28;9.18;;;2.70;99.90;;;;;;5031770;28;20185;-85
2023/03/11 01:16:00;;;;;;;73.45;12.02;;;2.70;99.90;;;;;;5032361;28;20173;-86
2023/03/11 01:18:26;;;;;;;70.10;12.07;;;2.70;99.90;;;;;;5032149;28;20161;-85
2023/03/11 01:20:52;;;;;;;67.97;13.40;;;2.70;99.90;;;;;;5032756;28;20177;-85
2023/03/11 01:23:19;;;;;;;72.85;11.57;;;2.70;99.90;;;;;;5047766;28;20212;-85
2023/03/11 01:25:45;;;;;;;71.55;12.02;;;2.80;99.90;;;;;;5047869;28;20157;-86
2023/03/11 01:28:11;;;;;;;70.88;9.27;;;2.80;99.90;;;;;;5050631;28;20169;-85
2023/03/11 01:30:39;;;;;;;69.87;9.17;;;2.80;99.90;;;;;;5050092;28;20185;-85
2023/03/11 01:33:07;;;;;;;73.47;11.65;;;2.80;99.90;;;;;;5049620;28;20173;-85
2023/03/11 01:35:34;;;;;;;70.65;11.00;;;2.80;99.90;;;;;;5049243;28;20165;-85
2023/03/11 01:38:03;;;;;;;72.85;8.50;;;2.80;99.90;;;;;;5048775;28;20157;-85
2023/03/11 01:40:36;;;;;;;70.00;8.27;;;2.80;99.90;;;;;;5032095;28;20188;-85
2023/03/11 01:43:05;;;;;;;69.97;7.63;;;2.90;99.90;;;;;;5050096;28;20189;-85
2023/03/11 01:46:01;;;;;;;73.07;7.43;;;2.90;99.90;;;;;;5032480;28;20175;-85
2023/03/11 01:48:27;;;;;;;70.80;6.68;;;2.90;99.90;;;;;;5032298;28;20553;-85
2023/03/11 01:50:57;;;;;;;74.95;7.25;;;2.90;99.90;;;;;;5031320;28;20193;-85
2023/03/11 01:53:23;;;;;;;66.53;5.95;;;2.90;99.90;;;;;;5031559;28;20200;-85
2023/03/11 01:55:49;;;;;;;68.38;7.32;;;2.90;99.90;;;;;;5032124;28;20199;-85
2023/03/11 01:58:23;;;;;;;67.55;6.90;;;2.80;99.90;;;;;;5049080;28;20164;-85
2023/03/11 02:00:48;;;;;;;71.40;5.70;;;2.80;99.90;;;;;;5049778;28;20184;-85
2023/03/11 02:03:24;;;;;;;79.03;6.07;;;2.80;99.90;;;;;;5031567;28;20192;-85
2023/03/11 02:05:55;;;;;;;74.15;6.55;;;2.80;99.90;;;;;;5031685;28;20180;-86
2023/03/11 02:08:22;;;;;;;68.93;5.80;;;2.80;99.90;;;;;;5032155;28;20169;-85
2023/03/11 02:10:51;;;;;;;68.45;6.38;;;2.80;99.90;;;;;;5031685;28;20189;-86
2023/03/11 02:13:18;;;;;;;68.85;5.35;;;2.80;99.90;;;;;;5049640;28;20241;-86
2023/03/11 02:15:47;;;;;;;69.43;5.80;;;2.70;99.90;;;;;;5049465;28;20216;-85
2023/03/11 02:18:13;;;;;;;71.10;6.15;;;2.70;99.90;;;;;;5049035;28;20170;-86
2023/03/11 02:20:56;;;;;;;71.40;6.70;;;2.70;99.90;;;;;;5031653;28;20228;-85
2023/03/11 02:23:26;;;;;;;67.95;5.25;;;2.60;99.90;;;;;;5031408;28;20189;-86
2023/03/11 02:26:10;;;;;;;69.90;6.40;;;2.60;99.90;;;;;;5031807;28;20154;-85
2023/03/11 02:28:40;;;;;;;72.65;5.75;;;2.60;99.90;;;;;;5031697;28;20154;-85
2023/03/11 02:31:05;;;;;;;67.95;6.30;;;2.50;99.90;;;;;;5034449;28;20216;-85
2023/03/11 02:33:35;;;;;;;72.77;6.00;;;2.40;99.90;;;;;;5052769;28;20180;-85
2023/03/11 02:36:01;;;;;;;70.30;6.40;;;2.40;99.90;;;;;;5038119;28;20412;-85
2023/03/11 02:38:27;;;;;;;68.00;6.60;;;2.40;99.90;;;;;;5035174;28;20187;-85
2023/03/11 02:41:00;;;;;;;66.85;6.15;;;2.40;99.90;;;;;;5035797;28;20461;-85
2023/03/11 02:43:38;;;;;;;72.05;6.95;;;2.30;99.90;;;;;;5052451;28;20239;-85
2023/03/11 02:46:05;;;;;;;74.10;5.72;;;2.40;99.90;;;;;;5051684;28;20157;-85
2023/03/11 02:48:33;;;;;;;67.38;5.95;;;2.30;99.90;;;;;;5034729;28;20174;-86
2023/03/11 02:50:59;;;;;;;69.22;5.28;;;2.30;99.90;;;;;;5034746;28;20251;-85
2023/03/11 02:53:32;;;;;;;74.32;7.10;;;2.30;99.90;;;;;;5052935;28;20177;-85
2023/03/11 02:55:58;;;;;;;69.25;6.63;;;2.30;99.90;;;;;;5052312;28;20163;-85
2023/03/11 02:58:24;;;;;;;66.10;6.20;;;2.30;99.90;;;;;;5034591;28;20181;-85
2023/03/11 03:00:50;;;;;;;75.37;5.97;;;2.20;99.90;;;;;;5052550;28;20666;-86
2023/03/11 03:03:15;;;;;;;67.57;5.80;;;2.20;99.90;;;;;;5051135;28;20496;-86
2023/03/11 03:05:41;;;;;;;71.27;6.37;;;2.20;99.90;;;;;;5034803;28;20629;-85
2023/03/11 03:08:07;;;;;;;71.10;6.17;;;2.20;99.90;;;;;;5052120;28;20176;-85
2023/03/11 03:10:36;;;;;;;69.60;6.60;;;2.20;99.90;;;;;;5052261;28;20673;-85
2023/03/11 03:13:07;;;;;;;66.20;5.90;;;2.20;99.90;;;;;;5034223;28;20213;-85
2023/03/11 03:15:33;;;;;;;66.82;5.60;;;2.20;99.90;;;;;;5034586;28;20188;-85
2023/03/11 03:17:59;;;;;;;66.67;5.63;;;2.10;99.90;;;;;;5051531;28;20173;-85
2023/03/11 03:20:25;;;;;;;65.17;5.60;;;2.10;99.90;;;;;;5052175;28;20170;-85
2023/03/11 03:22:51;;;;;;;72.03;5.57;;;2.20;99.90;;;;;;5033921;28;20193;-85
2023/03/11 03:25:17;;;;;;;65.93;5.68;;;2.10;99.90;;;;;;5034861;28;20694;-85
2023/03/11 03:27:43;;;;;;;68.57;5.97;;;2.10;99.90;;;;;;5034997;28;20177;-85
2023/03/11 03:30:09;;;;;;;65.97;5.43;;;2.10;99.90;;;;;;5034090;28;20287;-85
2023/03/11 03:32:36;;;;;;;67.80;5.65;;;2.10;99.90;;;;;;5051570;28;20439;-84
2023/03/11 03:35:05;;;;;;;64.95;5.57;;;2.10;99.90;;;;;;5052026;28;20166;-84
2023/03/11 03:37:35;;;;;;;69.15;5.88;;;2.00;99.90;;;;;;5034128;28;20189;-84
2023/03/11 03:40:06;;;;;;;77.22;6.20;;;2.00;99.90;;;;;;5034012;28;20185;-84
2023/03/11 03:42:35;;;;;;;71.70;5.90;;;2.00;99.90;;;;;;5051203;28;20192;-84
2023/03/11 03:45:02;;;;;;;67.07;5.63;;;2.00;99.90;;;;;;5034637;28;20169;-84
2023/03/11 03:47:28;;;;;;;65.45;4.50;;;2.10;99.90;;;;;;5051327;28;20233;-84
2023/03/11 03:49:53;;;;;;;70.00;5.23;;;2.00;99.90;;;;;;5050872;28;20193;-84
2023/03/11 03:52:19;;;;;;;69.20;5.80;;;2.00;99.90;;;;;;5051632;28;20432;-84
2023/03/11 03:54:45;;;;;;;67.23;6.10;;;1.90;99.90;;;;;;5051294;28;20498;-84
2023/03/11 03:57:11;;;;;;;67.33;5.23;;;1.90;99.90;;;;;;5033835;28;20436;-84
2023/03/11 03:59:36;;;;;;;69.80;5.77;;;1.90;99.90;;;;;;5050511;28;20240;-84
2023/03/11 04:02:02;;;;;;;66.73;5.63;;;1.90;99.90;;;;;;5050675;28;20193;-84
2023/03/11 04:04:29;;;;;;;68.80;6.03;;;1.90;99.90;;;;;;5033937;28;20416;-84
2023/03/11 04:06:55;;;;;;;68.90;6.10;;;1.90;99.90;;;;;;5050490;28;20407;-83
2023/03/11 04:09:20;;;;;;;64.40;4.83;;;1.90;99.90;;;;;;5053792;28;20193;-83
2023/03/11 04:11:46;;;;;;;74.57;6.03;;;1.80;99.90;;;;;;5050597;28;20192;-83
2023/03/11 04:14:13;;;;;;;79.53;5.83;;;1.80;99.90;;;;;;5050245;28;20215;-84
2023/03/11 04:16:39;;;;;;;66.20;6.38;;;1.80;99.90;;;;;;5032864;28;20419;-83
2023/03/11 04:19:05;;;;;;;68.67;5.57;;;1.80;99.90;;;;;;5050598;28;20166;-83
2023/03/11 04:21:32;;;;;;;69.97;6.27;;;1.80;99.90;;;;;;5033074;28;20237;-83
2023/03/11 04:24:00;;;;;;;66.32;5.95;;;1.80;99.90;;;;;;5050659;28;20403;-83
2023/03/11 04:26:27;;;;;;;70.35;6.40;;;1.80;99.90;;;;;;5050583;28;20181;-83
2023/03/11 04:28:53;;;;;;;64.97;5.80;;;1.80;99.90;;;;;;5031792;28;20166;-84
2023/03/11 04:31:19;;;;;;;71.55;6.43;;;1.80;99.90;;;;;;5047957;28;20169;-84
2023/03/11 04:33:44;;;;;;;70.83;5.50;;;1.80;99.90;;;;;;5048786;28;20185;-84
2023/03/11 04:36:11;;;;;;;65.77;6.23;;;1.80;99.90;;;;;;5049737;28;20187;-84
2023/03/11 04:38:37;;;;;;;69.00;6.20;;;1.80;99.90;;;;;;5049789;28;20181;-84
2023/03/11 04:41:04;;;;;;;72.00;6.90;;;1.80;99.90;;;;;;5049869;28;20168;-84
2023/03/11 04:43:30;;;;;;;68.63;6.40;;;1.90;99.90;;;;;;5049658;28;20477;-84
2023/03/11 04:45:56;;;;;;;71.97;7.67;;;1.80;99.90;;;;;;5032578;28;20169;-84
2023/03/11 04:48:23;;;;;;;70.60;6.37;;;1.90;99.90;;;;;;5031275;28;20230;-84
2023/03/11 04:50:49;;;;;;;70.60;5.85;;;1.90;99.90;;;;;;5050304;28;20446;-83
2023/03/11 04:53:15;;;;;;;66.90;6.18;;;1.90;99.90;;;;;;5049491;28;20244;-83
2023/03/11 04:55:41;;;;;;;67.47;5.90;;;1.80;99.90;;;;;;5049874;28;20165;-84
2023/03/11 04:58:06;;;;;;;69.37;6.83;;;1.80;99.90;;;;;;5049595;28;20169;-83
2023/03/11 05:00:32;;;;;;;66.50;5.90;;;1.80;99.90;;;;;;5049912;28;20173;-83
2023/03/11 05:02:58;;;;;;;69.23;7.90;;;1.70;99.90;;;;;;5049011;28;20200;-83
2023/03/11 05:05:24;;;;;;;67.97;6.37;;;1.70;99.90;;;;;;5049725;28;20408;-83
2023/03/11 05:07:49;;;;;;;71.70;6.53;;;1.70;99.90;;;;;;5049615;28;20444;-83
2023/03/11 05:10:21;;;;;;;72.67;7.40;;;1.70;99.90;;;;;;5048984;28;20475;-83
2023/03/11 05:12:47;;;;;;;65.32;5.45;;;1.70;99.90;;;;;;5048880;28;20188;-83
2023/03/11 05:15:13;;;;;;;69.30;6.95;;;1.70;99.90;;;;;;5048588;28;20169;-83
2023/03/11 05:17:39;;;;;;;69.53;6.83;;;1.70;99.90;;;;;;5049826;28;20165;-83
2023/03/11 05:20:06;;;;;;;70.80;6.40;;;1.70;99.90;;;;;;5049264;28;20903;-83
2023/03/11 05:22:32;;;;;;;70.07;7.07;;;1.70;99.90;;;;;;5048368;28;20196;-83
2023/03/11 05:24:58;;;;;;;73.88;7.03;;;1.60;99.90;;;;;;5049590;28;20189;-83
2023/03/11 05:27:24;;;;;;;65.67;5.80;;;1.60;99.90;;;;;;5049909;28;20169;-83
2023/03/11 05:29:50;;;;;;;69.30;5.90;;;1.70;99.90;;;;;;5049441;28;20436;-83
2023/03/11 05:32:18;;;;;;;67.60;6.50;;;1.70;99.90;;;;;;5032696;28;20496;-84
2023/03/11 05:34:44;;;;;;;72.43;6.93;;;1.70;99.90;;;;;;5032123;28;20422;-83
2023/03/11 05:37:10;;;;;;;67.82;6.35;;;1.70;99.90;;;;;;5049158;28;20165;-83
2023/03/11 05:39:36;;;;;;;73.53;6.80;;;1.70;99.90;;;;;;5105532;23;20270;-83
2023/03/11 05:42:05;;;;;;;70.53;5.95;;;1.70;99.90;;;;;;5054622;28;20423;-83
2023/03/11 05:44:34;;;;;;;69.85;6.88;;;1.70;99.90;;;;;;5037754;28;20199;-83
2023/03/11 05:47:06;;;;;;;69.95;6.20;;;1.70;99.90;;;;;;5055913;28;20222;-82
2023/03/11 05:49:34;;;;;;;70.80;6.72;;;1.70;99.90;;;;;;5038079;28;20204;-82
2023/03/11 05:52:00;;;;;;;68.70;5.88;;;1.70;99.90;;;;;;5055697;28;20261;-83
2023/03/11 05:54:28;;;;;;;75.00;7.60;;;1.80;99.90;;;;;;5055565;28;20243;-83
2023/03/11 05:56:54;;;;;;;69.00;6.88;;;1.80;99.90;;;;;;5055728;28;20395;-82
2023/03/11 05:59:22;;;;;;;68.35;6.80;;;1.80;99.90;;;;;;5055240;28;20164;-82
2023/03/11 06:01:52;;;;;;;66.88;7.10;;;1.80;99.90;;;;;;5055409;28;20272;-82
2023/03/11 06:04:18;;;;;;;67.20;6.35;;;1.70;99.90;;;;;;5056012;28;20164;-82
2023/03/11 06:06:46;;;;;;;70.43;7.13;;;1.80;99.90;;;;;;5060222;28;20232;-82
2023/03/11 06:09:15;;;;;;;65.72;6.10;;;1.80;99.90;;;;;;5059282;28;20164;-82
2023/03/11 06:11:44;;;;;;;74.90;7.82;;;1.80;99.90;;;;;;5041775;28;20165;-84
2023/03/11 06:14:14;;;;;;;70.30;6.95;;;1.80;99.90;;;;;;5061152;28;20156;-84
2023/03/11 06:16:43;;;;;;;68.95;7.18;;;1.90;99.90;;;;;;5061287;28;20161;-84
2023/03/11 06:19:09;;;;;;;69.03;6.72;;;1.90;99.90;;;;;;5042845;28;20587;-84
2023/03/11 06:21:40;;;;;;;67.25;7.30;;;1.90;99.90;;;;;;5041658;28;20160;-83
2023/03/11 06:24:06;;;;;;;75.20;8.20;;;1.90;99.90;;;;;;5059075;28;20156;-83
2023/03/11 06:26:32;;;;;;;74.93;8.07;;;1.90;99.90;;;;;;5059731;28;20157;-82
2023/03/11 06:29:03;;;;;;;70.20;8.70;;;2.00;99.90;;;;;;5059072;28;20910;-82
2023/03/11 06:31:32;;;;;;;66.50;6.65;;;2.00;99.90;;;;;;5058818;28;20640;-83
2023/03/11 06:33:58;;;;;;;79.80;7.47;;;2.00;99.90;;;;;;5040955;28;20700;-83
2023/03/11 06:36:29;;;;;;;70.75;7.07;;;2.00;99.90;;;;;;5040623;28;20193;-83
2023/03/11 06:38:57;;;;;;;70.75;7.57;;;2.10;99.90;;;;;;5040533;28;20216;-82
2023/03/11 06:41:23;;;;;;;67.70;7.07;;;2.10;99.90;;;;;;5059128;28;20187;-82
2023/03/11 06:43:52;;;;;;;68.20;7.30;;;2.10;99.90;;;;;;5042109;28;20564;-82
2023/03/11 06:46:22;;;;;;;69.53;7.05;;;2.20;99.90;;;;;;5059787;28;20156;-82
2023/03/11 06:48:51;;;;;;;66.13;6.43;;;2.20;99.90;;;;;;5042005;28;20153;-82
2023/03/11 06:51:18;;;;;;;70.35;8.07;;;2.30;99.90;;;;;;5041970;28;20195;-83
2023/03/11 06:53:47;;;;;;;66.70;6.63;;;2.30;99.90;;;;;;5059092;28;20211;-82
2023/03/11 06:56:13;;;;;;;66.22;5.68;;;2.40;99.90;;;;;;5059187;28;20172;-83
2023/03/11 06:58:40;;;;;;;68.75;6.03;;;2.40;99.90;;;;;;5042223;28;20663;-82
2023/03/11 07:01:14;;;;;;;66.00;6.45;;;2.40;99.90;;;;;;5040887;28;20179;-83
2023/03/11 07:03:40;;;;;;;75.30;7.45;;;2.40;99.90;;;;;;5061784;28;20218;-83
2023/03/11 07:06:09;;;;;;;70.20;6.47;;;2.30;99.90;;;;;;5043884;28;20164;-82
2023/03/11 07:08:35;;;;;;;74.97;7.22;;;2.40;99.90;;;;;;5044039;28;20195;-83
2023/03/11 07:11:05;;;;;;;71.60;7.27;;;2.40;99.90;;;;;;5043045;28;20192;-83
2023/03/11 07:13:31;;;;;;;82.57;8.07;;;2.40;99.90;;;;;;5061907;28;20590;-82
2023/03/11 07:16:17;;;;;;;68.60;6.90;;;2.40;99.90;;;;;;5041044;28;20164;-84
2023/03/11 07:18:44;;;;;;;77.13;7.53;;;2.40;99.90;;;;;;5040570;28;20156;-82
2023/03/11 07:21:13;;;;;;;67.70;6.38;;;2.50;99.90;;;;;;5041080;28;20183;-83
2023/03/11 07:23:38;;;;;;;69.70;6.15;;;2.50;99.90;;;;;;5058962;28;20200;-82
2023/03/11 07:26:06;;;;;;;67.67;6.03;;;2.50;99.90;;;;;;5059296;28;20164;-84
2023/03/11 07:28:32;;;;;;;70.35;5.95;;;2.60;99.90;;;;;;5041969;28;20655;-83
2023/03/11 07:30:58;;;;;;;68.60;6.00;;;2.70;99.90;;;;;;5041027;28;20184;-82
2023/03/11 07:33:24;;;;;;;69.50;5.87;;;2.70;99.90;;;;;;5040433;28;20195;-82
2023/03/11 07:35:50;;;;;;;74.50;6.25;;;2.60;99.90;;;;;;5058288;28;20399;-83
2023/03/11 07:38:16;;;;;;;71.28;6.45;;;2.50;99.90;;;;;;5040215;28;20280;-82
2023/03/11 07:40:43;;;;;;;67.20;5.97;;;2.60;99.90;;;;;;5059018;28;20196;-82
2023/03/11 07:43:09;;;;;;;67.60;5.90;;;2.60;99.90;;;;;;5041501;28;20184;-83
2023/03/11 07:45:34;;;;;;;68.63;6.28;;;2.50;99.90;;;;;;5059538;28;20176;-82
2023/03/11 07:48:00;;;;;;;68.67;6.13;;;2.50;99.90;;;;;;5042606;28;20636;-84
2023/03/11 07:50:26;;;;;;;75.60;6.60;;;2.50;99.90;;;;;;5041751;28;20197;-84
2023/03/11 07:52:52;;;;;;;67.97;6.50;;;2.60;99.90;;;;;;5059931;28;20216;-84
2023/03/11 07:55:17;;;;;;;71.80;5.93;;;2.60;99.90;;;;;;5060286;28;20516;-83
2023/03/11 07:57:46;;;;;;;70.80;5.67;;;2.70;99.90;;;;;;5060177;28;20563;-83
2023/03/11 08:00:13;;;;;;;70.78;6.38;;;2.80;99.90;;;;;;5041676;28;20647;-85
2023/03/11 08:02:38;;;;;;;65.88;5.15;;;2.80;99.90;;;;;;5059606;28;20664;-85
2023/03/11 08:05:05;;;;;;;69.07;6.20;;;2.70;99.90;;;;;;5059625;28;20171;-85
2023/03/11 08:07:31;;;;;;;67.45;6.10;;;2.70;99.90;;;;;;5060070;28;20636;-85
2023/03/11 08:09:57;;;;;;;68.13;6.25;;;2.60;99.90;;;;;;5041732;28;20204;-85
2023/03/11 08:12:23;;;;;;;69.73;6.20;;;2.70;99.90;;;;;;5059727;28;20176;-83
2023/03/11 08:14:49;;;;;;;70.27;5.87;;;2.70;99.90;;;;;;5059919;28;20463;-84
2023/03/11 08:17:14;;;;;;;69.00;6.50;;;2.80;99.90;;;;;;5060712;28;20223;-84
2023/03/11 08:19:40;;;;;;;70.73;5.93;;;2.80;99.90;;;;;;5042982;28;20173;-84
2023/03/11 08:22:06;;;;;;;72.00;6.73;;;2.80;99.90;;;;;;5060561;28;20192;-84
2023/03/11 08:24:32;;;;;;;70.30;6.40;;;2.80;99.90;;;;;;5059865;28;20571;-84
2023/03/11 08:26:58;;;;;;;70.28;5.88;;;2.90;99.90;;;;;;5058885;28;20187;-84
2023/03/11 08:29:24;;;;;;;70.33;7.10;;;2.90;99.90;;;;;;5042392;28;20204;-84
2023/03/11 08:31:50;;;;;;;78.22;6.82;;;2.80;99.90;;;;;;5060489;28;20259;-84
2023/03/11 08:34:16;;;;;;;73.30;7.70;;;2.80;99.90;;;;;;5060705;28;20243;-83
2023/03/11 08:36:41;;;;;;;66.90;5.50;;;2.90;99.90;;;;;;5059908;28;20165;-85
2023/03/11 08:39:07;;;;;;;68.07;6.70;;;3.00;99.90;;;;;;5041486;28;20435;-84
2023/03/11 08:44:03;;;;;;;67.38;6.75;;;3.00;99.90;;;;;;5034532;28;20455;-83
2023/03/11 08:46:37;;;;;;;67.15;6.90;;;3.00;99.90;;;;;;5037581;28;20188;-84
2023/03/11 08:49:04;;;;;;;72.22;6.97;;;3.10;99.90;;;;;;5038049;28;20475;-84
2023/03/11 08:51:31;;;;;;;70.35;5.95;;;3.20;99.90;;;;;;5036428;28;20252;-84
2023/03/11 08:53:58;;;;;;;73.85;6.65;;;3.20;99.90;;;;;;5037378;28;20165;-83
2023/03/11 08:56:24;;;;;;;71.32;5.75;;;3.10;99.90;;;;;;5021446;28;20165;-85
2023/03/11 08:58:50;;;;;;;68.68;6.47;;;3.10;99.90;;;;;;5021283;28;20168;-84
2023/03/11 09:01:17;;;;;;;67.90;5.57;;;3.10;99.90;;;;;;5020097;28;20173;-84
2023/03/11 09:03:42;;;;;;;81.28;6.10;;;3.20;99.90;;;;;;5037366;28;20792;-84
2023/03/11 09:06:14;;;;;;;67.43;5.30;;;3.30;99.90;;;;;;5036829;28;20173;-84
2023/03/11 09:08:40;;;;;;;69.22;5.55;;;3.30;99.90;;;;;;5037195;28;20146;-84
2023/03/11 09:11:05;;;;;;;65.40;5.25;;;3.40;99.90;;;;;;5019212;28;20197;-84
2023/03/11 09:13:32;;;;;;;65.90;4.30;;;3.50;99.90;;;;;;5036744;28;20263;-84
2023/03/11 09:15:57;;;;;;;67.95;4.50;;;3.40;85.50;;;;;;5037041;28;20470;-84
2023/03/11 09:18:23;;;;;;;66.87;5.20;;;3.60;95.70;;;;;;5020058;28;20161;-84
2023/03/11 09:20:49;;;;;;;71.53;4.60;;;3.70;92.10;;;;;;5020725;28;20173;-85
2023/03/11 09:23:16;;;;;;;69.40;5.93;;;3.80;96.50;;;;;;5021895;28;20219;-85
2023/03/11 09:25:42;;;;;;;65.95;4.05;;;3.90;91.60;;;;;;5021320;28;20173;-85
2023/03/11 09:28:08;;;;;;;67.77;4.90;;;3.70;44.00;;;;;;5021136;28;20180;-85
2023/03/11 09:30:34;;;;;;;67.10;4.20;;;3.60;25.10;;;;;;5039269;28;20444;-85
2023/03/11 09:33:00;;;;;;;65.05;4.25;;;3.60;9.70;;;;;;5039370;28;20185;-84
2023/03/11 09:35:26;;;;;;;72.10;4.90;;;3.50;1.00;;;;;;5038656;28;20169;-85
2023/03/11 09:37:52;;;;;;;64.80;4.50;;;3.50;1.00;;;;;;5021117;28;20412;-85
2023/03/11 09:40:20;;;;;;;69.17;4.23;;;3.60;1.00;;;;;;5039890;28;20760;-85
2023/03/11 09:42:52;;;;;;;69.20;4.45;;;3.60;1.00;;;;;;5011281;28;20213;-85
2023/03/11 09:45:23;;;;;;;65.82;4.22;;;3.80;1.00;;;;;;5020219;28;20173;-85
2023/03/11 09:48:05;;;;;;;68.88;4.28;;;3.90;1.00;;;;;;4999001;28;20163;-84
2023/03/11 09:50:58;;;;;;;65.05;4.63;;;3.90;1.00;;;;;;4999298;28;20189;-85
2023/03/11 09:53:44;;;;;;;64.95;3.90;;;4.00;1.00;;;;;;4999791;28;20186;-85
2023/03/11 09:56:16;;;;;;;65.22;4.90;;;4.10;1.00;;;;;;5019182;28;20181;-85
2023/03/11 09:58:55;;;;;;;64.47;4.25;;;4.30;1.00;;;;;;4999733;28;20159;-84
2023/03/11 10:01:37;;;;;;;67.93;5.10;;;4.40;1.00;;;;;;5012266;28;20200;-83
2023/03/11 10:04:07;;;;;;;64.60;3.42;;;4.70;1.00;;;;;;5020029;28;20150;-84
2023/03/11 10:06:33;;;;;;;65.80;3.83;;;4.90;1.00;;;;;;4999809;28;20226;-84
2023/03/11 10:09:23;;;;;;;68.80;4.30;;;4.90;1.00;;;;;;5016955;28;20653;-85
2023/03/11 10:12:09;;;;;;;64.82;4.40;;;5.00;1.00;;;;;;5019863;28;20212;-83
2023/03/11 10:14:41;;;;;;;66.15;3.92;;;4.90;1.00;;;;;;5002231;28;20162;-84
2023/03/11 10:17:16;;;;;;;64.35;3.58;;;5.00;1.00;;;;;;5001722;28;20174;-84
2023/03/11 10:20:13;;;;;;;64.80;3.80;;;5.20;1.00;;;;;;5018916;28;20166;-84
2023/03/11 10:23:20;;;;;;;69.03;4.65;;;5.60;1.00;;;;;;5019414;28;20197;-84
2023/03/11 10:25:57;;;;;;;66.50;5.18;;;6.00;1.00;;;;;;4977810;28;20155;-85
2023/03/11 10:28:39;;;;;;;71.32;4.50;;;6.10;1.00;;;;;;5014555;28;20178;-84
2023/03/11 10:31:25;;;;;;;66.35;4.25;;;6.20;1.00;;;;;;5018138;28;20178;-85
2023/03/11 10:34:27;;;;;;;65.88;4.07;;;6.30;1.00;;;;;;5017843;28;20249;-85
2023/03/11 10:36:58;;;;;;;67.22;4.40;;;6.30;1.00;;;;;;5000858;28;20537;-84
2023/03/11 10:39:25;;;;;;;66.88;4.18;;;6.20;1.00;;;;;;5000818;28;20245;-84
2023/03/11 10:42:01;;;;;;;64.95;4.07;;;5.80;1.00;;;;;;5020874;28;20185;-85
2023/03/11 10:44:34;;;;;;;65.57;4.10;;;5.60;1.00;;;;;;5013525;28;20176;-84
2023/03/11 10:47:01;;;;;;;64.20;3.58;;;5.70;1.00;;;;;;5053041;28;20165;-85
2023/03/11 10:49:29;;;;;;;69.85;3.95;;;5.60;1.00;;;;;;5017514;28;20324;-84
2023/03/11 10:51:56;;;;;;;64.68;4.30;;;5.60;1.00;;;;;;5038005;28;20200;-84
2023/03/11 10:54:34;;;;;;;65.40;3.63;;;5.50;1.00;;;;;;5042468;28;20192;-85
2023/03/11 10:57:03;;;;;;;65.70;3.88;;;5.50;1.00;;;;;;5021968;28;20173;-86
2023/03/11 10:59:36;;;;;;;70.82;3.63;;;5.50;1.00;;;;;;5020858;28;20591;-85
2023/03/11 11:02:26;;;;;;;64.78;3.30;;;5.70;1.00;;;;;;5055602;28;20186;-85
2023/03/11 11:05:29;;;;;;;67.57;3.80;;;5.90;1.00;;;;;;5010371;28;20181;-85
2023/03/11 11:08:15;;;;;;;66.60;3.55;;;6.00;1.00;;;;;;5039237;28;20153;-85
2023/03/11 11:10:55;;;;;;;65.43;3.92;;;6.20;1.00;;;;;;5017797;28;20755;-85
2023/03/11 11:13:28;;;;;;;65.20;3.47;;;6.30;1.00;;;;;;5041773;28;20562;-86
2023/03/11 11:16:17;;;;;;;66.55;3.42;;;6.40;1.00;;;;;;5041927;28;20154;-85
2023/03/11 11:18:49;;;;;;;69.55;3.90;;;6.40;1.00;;;;;;5019076;28;20154;-84
2023/03/11 11:21:29;;;;;;;64.65;3.83;;;6.40;1.00;;;;;;5024063;28;20268;-85
2023/03/11 11:24:20;;;;;;;64.78;3.47;;;6.20;1.00;;;;;;5020634;28;20231;-85
2023/03/11 11:27:10;;;;;;;68.65;3.33;;;6.40;1.00;;;;;;5041643;28;20161;-86
2023/03/11 11:29:36;;;;;;;66.88;3.20;;;6.80;1.00;;;;;;5035402;28;20188;-85
2023/03/11 11:32:17;;;;;;;65.60;3.60;;;7.10;1.00;;;;;;5041247;28;20189;-85
2023/03/11 11:34:53;;;;;;;65.85;3.55;;;7.30;1.00;;;;;;5040992;28;20211;-85
2023/03/11 11:37:21;;;;;;;64.90;3.30;;;7.40;1.00;;;;;;5041257;28;20161;-85
2023/03/11 11:39:55;;;;;;;69.47;3.10;;;7.50;1.00;;;;;;5091739;23;20322;-84
2023/03/11 11:42:22;;;;;;;63.83;4.00;;;7.60;1.00;;;;;;5030750;28;20241;-85
2023/03/11 11:44:59;;;;;;;64.75;3.78;;;7.50;1.00;;;;;;5031973;28;20169;-84
2023/03/11 11:47:36;;;;;;;66.30;3.70;;;7.40;1.00;;;;;;5046946;28;20165;-84
2023/03/11 11:50:12;;;;;;;64.97;3.85;;;7.50;1.00;;;;;;5031118;28;20181;-84
2023/03/11 11:52:51;;;;;;;63.97;3.00;;;7.30;1.00;;;;;;5030291;28;20196;-84
2023/03/11 11:55:22;;;;;;;69.78;4.05;;;7.10;1.00;;;;;;5031217;28;20159;-85
2023/03/11 11:57:50;;;;;;;66.28;3.33;;;7.50;1.00;;;;;;5046733;28;20225;-84
2023/03/11 12:00:24;;;;;;;73.25;3.50;;;7.70;1.00;;;;;;5029987;28;20177;-84
2023/03/11 12:03:12;;;;;;;67.60;4.03;;;7.70;1.00;;;;;;5030618;28;20209;-84
2023/03/11 12:06:00;;;;;;;67.32;4.38;;;7.80;1.00;;;;;;5030455;28;20154;-85
2023/03/11 12:08:46;;;;;;;66.65;3.60;;;7.70;1.00;;;;;;5029728;28;20162;-84
2023/03/11 12:11:26;;;;;;;64.00;3.80;;;7.70;1.00;;;;;;5030182;28;20180;-84
2023/03/11 12:14:03;;;;;;;63.85;3.25;;;7.80;1.00;;;;;;5030307;28;20174;-84
2023/03/11 12:16:58;;;;;;;73.75;3.92;;;8.40;1.00;;;;;;5030421;28;20158;-85
2023/03/11 12:19:36;;;;;;;67.13;3.95;;;8.90;1.00;;;;;;5029899;28;20154;-85
2023/03/11 12:22:24;;;;;;;71.28;4.05;;;9.00;1.00;;;;;;5029768;28;20180;-84
2023/03/11 12:25:13;;;;;;;64.68;3.63;;;9.00;1.00;;;;;;5029903;28;20151;-84
2023/03/11 12:27:43;;;;;;;67.28;3.78;;;8.60;1.00;;;;;;5029937;28;20161;-84
2023/03/11 12:30:28;;;;;;;65.43;3.20;;;8.30;1.00;;;;;;5029316;28;20205;-84
2023/03/11 12:33:04;;;;;;;65.15;3.10;;;8.40;1.00;;;;;;5030049;28;20224;-84
2023/03/11 12:35:33;;;;;;;69.18;4.15;;;8.20;1.00;;;;;;5029263;28;20150;-84
2023/03/11 12:38:22;;;;;;;69.90;5.43;;;8.00;1.00;;;;;;5045495;28;20181;-84
2023/03/11 12:40:56;;;;;;;66.65;3.40;;;7.60;1.00;;;;;;5029893;28;20154;-84
2023/03/11 12:43:32;;;;;;;65.10;3.75;;;7.40;1.00;;;;;;5029076;28;20252;-84
2023/03/11 12:46:00;;;;;;;64.75;3.40;;;7.30;1.00;;;;;;5029198;28;20196;-84
2023/03/11 12:48:26;;;;;;;67.07;3.70;;;7.20;1.00;;;;;;5030134;28;20161;-84
2023/03/11 12:50:53;;;;;;;68.77;4.13;;;7.40;1.00;;;;;;5029709;28;20681;-84
2023/03/11 12:53:19;;;;;;;64.57;3.70;;;7.40;1.00;;;;;;5029439;28;20188;-84
2023/03/11 12:56:14;;;;;;;67.07;4.00;;;7.40;1.00;;;;;;5029130;28;20161;-84
2023/03/11 12:59:03;;;;;;;65.18;4.05;;;7.30;1.00;;;;;;5013464;28;20193;-84
2023/03/11 13:01:41;;;;;;;65.85;3.67;;;7.00;1.00;;;;;;5029392;28;20158;-83
2023/03/11 13:04:26;;;;;;;64.95;3.53;;;7.10;1.00;;;;;;5028701;28;20617;-84
2023/03/11 13:07:03;;;;;;;64.05;3.88;;;7.20;1.00;;;;;;5028883;28;20185;-84